Time;durP1;ratioP1;P1;durP2;ratioP2;P2;SDS_P1;SDS_P2;PMS_P1;PMS_P2;Temp;Humidity;BMP_temperature;BMP_pressure;BME280_temperature;BME280_humidity;BME280_pressure;Samples;Min_cycle;Max_cycle;Signal;HPM_P1;HPM_P2
2021/06/05 00:00:17;;;;;;;106.20;57.53;;;18.80;99.90;;;;;;5055705;28;20526;-80
2021/06/05 00:02:42;;;;;;;104.78;58.63;;;18.70;99.90;;;;;;5057629;28;20285;-80
2021/06/05 00:05:09;;;;;;;97.22;57.35;;;18.50;99.90;;;;;;5055362;28;20604;-81
2021/06/05 00:07:34;;;;;;;103.75;59.75;;;18.70;99.90;;;;;;5055402;28;20170;-83
2021/06/05 00:10:00;;;;;;;106.65;60.15;;;18.60;99.90;;;;;;5055645;28;20187;-84
2021/06/05 00:12:28;;;;;;;103.40;59.78;;;18.70;99.90;;;;;;5055452;28;20533;-81
2021/06/05 00:14:54;;;;;;;101.10;59.05;;;18.60;99.90;;;;;;5056894;28;20282;-80
2021/06/05 00:17:21;;;;;;;98.97;59.97;;;18.70;99.90;;;;;;5065593;28;20223;-81
2021/06/05 00:19:46;;;;;;;106.07;59.83;;;18.80;99.90;;;;;;5068932;28;20224;-80
2021/06/05 00:22:12;;;;;;;109.28;60.53;;;18.70;99.90;;;;;;5068113;28;20169;-79
2021/06/05 00:24:40;;;;;;;97.47;58.03;;;18.80;99.90;;;;;;5056763;28;20174;-81
2021/06/05 00:27:06;;;;;;;108.13;59.80;;;18.90;99.90;;;;;;5057073;28;20160;-81
2021/06/05 00:29:32;;;;;;;107.00;61.63;;;18.80;99.90;;;;;;5054345;28;20187;-80
2021/06/05 00:31:59;;;;;;;102.45;57.10;;;18.90;99.90;;;;;;5055672;28;20190;-80
2021/06/05 00:34:25;;;;;;;97.20;57.33;;;18.80;99.90;;;;;;5053483;28;20694;-81
2021/06/05 00:36:50;;;;;;;104.95;60.08;;;18.90;99.90;;;;;;5054562;28;20167;-80
2021/06/05 00:39:16;;;;;;;110.45;59.13;;;19.00;99.90;;;;;;5054418;28;20735;-82
2021/06/05 00:41:42;;;;;;;97.65;57.30;;;18.90;99.90;;;;;;5054645;28;20186;-81
2021/06/05 00:44:11;;;;;;;104.22;57.55;;;18.90;99.90;;;;;;5053372;28;20163;-80
2021/06/05 00:46:37;;;;;;;108.10;56.75;;;18.90;99.90;;;;;;5054539;28;20194;-80
2021/06/05 00:49:06;;;;;;;100.50;57.08;;;19.10;99.90;;;;;;5054179;28;20639;-83
2021/06/05 00:51:37;;;;;;;98.72;56.45;;;19.10;99.90;;;;;;5054513;28;20651;-81
2021/06/05 00:54:03;;;;;;;94.38;54.72;;;19.00;99.90;;;;;;5054357;28;20933;-79
2021/06/05 00:56:29;;;;;;;91.97;54.42;;;18.90;99.90;;;;;;5054237;28;20214;-80
2021/06/05 00:58:55;;;;;;;86.40;52.22;;;18.90;99.90;;;;;;5053181;28;20262;-81
2021/06/05 01:01:27;;;;;;;92.60;53.70;;;18.80;99.90;;;;;;5054096;28;20560;-79
2021/06/05 01:03:53;;;;;;;94.72;55.22;;;18.90;99.90;;;;;;5053990;28;20202;-81
2021/06/05 01:06:34;;;;;;;91.60;54.50;;;18.90;99.90;;;;;;5054283;28;20194;-81
2021/06/05 01:09:14;;;;;;;94.45;55.55;;;18.90;99.90;;;;;;5054181;28;20167;-80
2021/06/05 01:11:42;;;;;;;111.03;55.83;;;18.80;99.90;;;;;;5053674;28;20615;-79
2021/06/05 01:14:33;;;;;;;95.70;54.42;;;18.90;99.90;;;;;;5053965;28;20178;-81
2021/06/05 01:17:14;;;;;;;96.05;54.55;;;19.00;99.90;;;;;;5053566;28;20163;-79
2021/06/05 01:19:57;;;;;;;97.07;54.30;;;19.10;99.90;;;;;;5053941;28;20195;-79
2021/06/05 01:23:04;;;;;;;97.82;53.42;;;19.20;99.90;;;;;;5053868;28;20171;-80
2021/06/05 01:25:50;;;;;;;95.53;52.42;;;19.10;99.90;;;;;;5039760;28;20638;-80
2021/06/05 01:28:22;;;;;;;97.07;54.72;;;19.00;99.90;;;;;;5053522;28;20264;-80
2021/06/05 01:30:55;;;;;;;97.20;53.70;;;19.10;99.90;;;;;;5053035;28;20183;-80
2021/06/05 01:33:24;;;;;;;95.93;52.10;;;19.10;99.90;;;;;;5053701;28;20228;-80
2021/06/05 01:35:51;;;;;;;100.45;51.35;;;19.00;99.90;;;;;;5053505;28;20579;-80
2021/06/05 01:38:18;;;;;;;105.90;53.97;;;19.00;99.90;;;;;;5053433;28;20249;-80
2021/06/05 01:40:46;;;;;;;115.28;55.00;;;19.00;99.90;;;;;;5052947;28;20191;-79
2021/06/05 01:43:16;;;;;;;130.35;56.88;;;19.00;99.90;;;;;;5053377;28;20195;-79
2021/06/05 01:45:43;;;;;;;136.35;56.13;;;18.80;99.90;;;;;;5053397;28;20221;-79
2021/06/05 01:48:11;;;;;;;133.93;55.33;;;18.70;99.90;;;;;;5053140;28;20203;-79
2021/06/05 01:50:40;;;;;;;164.45;61.35;;;18.30;99.90;;;;;;5053249;28;20191;-79
2021/06/05 01:53:28;;;;;;;149.23;59.13;;;18.20;99.90;;;;;;5053190;28;20170;-80
2021/06/05 01:56:28;;;;;;;166.02;62.25;;;18.10;99.90;;;;;;5053212;28;20285;-80
2021/06/05 01:58:55;;;;;;;159.75;59.15;;;17.90;99.90;;;;;;5032005;28;20218;-80
2021/06/05 02:01:21;;;;;;;162.00;61.40;;;17.70;99.90;;;;;;5052893;28;20659;-80
2021/06/05 02:03:49;;;;;;;171.07;64.10;;;17.50;99.90;;;;;;5052955;28;20168;-82
2021/06/05 02:06:14;;;;;;;164.60;63.45;;;17.60;99.90;;;;;;5051709;28;20171;-80
2021/06/05 02:08:40;;;;;;;162.35;60.50;;;17.50;99.90;;;;;;5052961;28;20182;-80
2021/06/05 02:11:11;;;;;;;161.20;61.22;;;17.50;99.90;;;;;;5050987;28;20183;-79
2021/06/05 02:13:44;;;;;;;155.10;62.00;;;17.50;99.90;;;;;;5052968;28;20168;-80
2021/06/05 02:16:22;;;;;;;171.52;64.47;;;17.40;99.90;;;;;;5051473;28;20221;-80
2021/06/05 02:18:54;;;;;;;149.35;59.20;;;17.40;99.90;;;;;;5051546;28;20160;-79
2021/06/05 02:21:21;;;;;;;159.35;61.90;;;17.50;99.90;;;;;;5052765;28;20254;-80
2021/06/05 02:23:57;;;;;;;139.10;59.00;;;17.40;99.90;;;;;;5051381;28;20178;-82
2021/06/05 02:26:24;;;;;;;144.43;57.55;;;17.50;99.90;;;;;;5051419;28;20277;-80
2021/06/05 02:28:55;;;;;;;157.50;59.58;;;17.30;99.90;;;;;;5052662;28;20174;-80
2021/06/05 02:31:21;;;;;;;142.25;57.85;;;17.50;99.90;;;;;;5052470;28;20190;-81
2021/06/05 02:33:48;;;;;;;143.63;60.22;;;17.20;99.90;;;;;;5052654;28;20198;-80
2021/06/05 02:36:15;;;;;;;147.70;59.63;;;17.20;99.90;;;;;;5052442;28;20260;-81
2021/06/05 02:38:45;;;;;;;139.07;58.25;;;17.10;99.90;;;;;;5052568;28;20174;-80
2021/06/05 02:41:12;;;;;;;142.77;56.60;;;17.10;99.90;;;;;;5052189;28;20187;-80
2021/06/05 02:43:39;;;;;;;123.70;54.33;;;17.30;99.90;;;;;;5052431;28;20221;-80
2021/06/05 02:46:15;;;;;;;132.93;56.60;;;17.30;99.90;;;;;;5052572;28;20679;-83
2021/06/05 02:49:20;;;;;;;139.27;55.58;;;17.20;99.90;;;;;;5052207;28;20159;-81
2021/06/05 02:51:51;;;;;;;121.88;54.05;;;17.10;99.90;;;;;;5045746;28;20179;-79
2021/06/05 02:54:20;;;;;;;132.25;54.67;;;17.10;99.90;;;;;;5069527;28;20170;-80
2021/06/05 02:56:46;;;;;;;120.70;52.63;;;17.00;99.90;;;;;;5072961;28;20686;-80
2021/06/05 02:59:12;;;;;;;120.60;50.55;;;17.10;99.90;;;;;;5072436;28;20240;-79
2021/06/05 03:01:37;;;;;;;109.50;50.20;;;17.00;99.90;;;;;;5052927;28;20658;-80
2021/06/05 03:04:03;;;;;;;120.75;52.58;;;17.00;99.90;;;;;;5052552;28;20168;-80
2021/06/05 03:06:30;;;;;;;109.90;47.85;;;17.00;99.90;;;;;;5052593;28;20197;-80
2021/06/05 03:08:57;;;;;;;109.93;50.63;;;17.00;99.90;;;;;;5052132;28;20166;-80
2021/06/05 03:11:23;;;;;;;105.20;49.63;;;17.10;99.90;;;;;;5052068;28;20196;-80
2021/06/05 03:13:49;;;;;;;111.43;50.58;;;17.10;99.90;;;;;;5050940;28;20175;-80
2021/06/05 03:16:16;;;;;;;86.93;46.17;;;17.10;99.90;;;;;;5052231;28;20209;-79
2021/06/05 03:18:42;;;;;;;97.40;49.85;;;17.00;99.90;;;;;;5051001;28;20252;-80
2021/06/05 03:21:11;;;;;;;93.63;48.25;;;17.00;99.90;;;;;;5052350;28;20191;-80
2021/06/05 03:23:38;;;;;;;93.63;47.92;;;17.00;99.90;;;;;;5052876;28;20635;-81
2021/06/05 03:26:05;;;;;;;89.13;46.97;;;17.00;99.90;;;;;;5053999;28;20601;-81
2021/06/05 03:28:36;;;;;;;89.70;47.33;;;17.10;99.90;;;;;;5057139;28;20631;-79
2021/06/05 03:31:03;;;;;;;90.45;44.92;;;17.10;99.90;;;;;;5056959;28;20187;-80
2021/06/05 03:33:30;;;;;;;98.47;49.60;;;17.20;99.90;;;;;;5055474;28;20258;-80
2021/06/05 03:35:56;;;;;;;88.07;45.65;;;17.20;99.90;;;;;;5055117;28;20571;-80
2021/06/05 03:38:25;;;;;;;96.10;45.70;;;17.00;99.90;;;;;;5058776;28;20168;-80
2021/06/05 03:40:52;;;;;;;88.10;45.17;;;17.00;99.90;;;;;;5059651;28;20190;-80
2021/06/05 03:43:18;;;;;;;83.18;44.53;;;17.00;99.90;;;;;;5055586;28;20175;-80
2021/06/05 03:45:44;;;;;;;82.88;43.53;;;17.00;99.90;;;;;;5055811;28;20186;-80
2021/06/05 03:48:10;;;;;;;80.18;42.13;;;17.10;99.90;;;;;;5057610;28;20140;-80
2021/06/05 03:50:46;;;;;;;71.15;40.47;;;17.20;99.90;;;;;;5057368;28;20541;-78
2021/06/05 03:53:14;;;;;;;72.43;39.60;;;17.30;99.90;;;;;;5057521;28;20175;-80
2021/06/05 03:55:40;;;;;;;72.97;39.17;;;17.20;99.90;;;;;;5055649;28;20205;-80
2021/06/05 03:58:07;;;;;;;82.28;39.58;;;17.10;99.90;;;;;;5055107;28;20167;-81
2021/06/05 04:00:35;;;;;;;82.40;43.20;;;17.10;99.90;;;;;;5054783;28;20187;-78
2021/06/05 04:03:03;;;;;;;81.97;41.05;;;16.90;99.90;;;;;;5057933;28;20218;-79
2021/06/05 04:05:33;;;;;;;81.80;41.50;;;16.80;99.90;;;;;;5060487;28;20210;-78
2021/06/05 04:08:00;;;;;;;89.45;42.25;;;16.70;99.90;;;;;;5057891;28;20515;-78
2021/06/05 04:10:26;;;;;;;84.82;42.88;;;16.70;99.90;;;;;;5056673;28;20561;-79
2021/06/05 04:12:53;;;;;;;87.22;42.15;;;16.70;99.90;;;;;;5055670;28;20152;-79
2021/06/05 04:15:23;;;;;;;83.95;41.78;;;16.70;99.90;;;;;;5058038;28;20256;-78
2021/06/05 04:17:57;;;;;;;77.85;41.05;;;16.60;99.90;;;;;;5042481;28;20175;-78
2021/06/05 04:20:23;;;;;;;75.55;42.05;;;16.60;99.90;;;;;;5058114;28;20195;-79
2021/06/05 04:22:48;;;;;;;80.65;39.67;;;16.50;99.90;;;;;;5060328;28;20163;-79
2021/06/05 04:25:14;;;;;;;67.47;38.13;;;16.50;99.90;;;;;;5058873;28;20172;-79
2021/06/05 04:27:40;;;;;;;76.30;38.75;;;16.70;99.90;;;;;;5055303;28;20159;-78
2021/06/05 04:30:10;;;;;;;69.13;38.13;;;16.70;99.90;;;;;;5060369;28;20215;-80
2021/06/05 04:32:35;;;;;;;69.03;34.45;;;16.90;99.90;;;;;;5056810;28;20167;-78
2021/06/05 04:35:02;;;;;;;60.22;34.65;;;16.90;99.90;;;;;;5058788;28;20256;-78
2021/06/05 04:37:28;;;;;;;59.70;35.78;;;16.70;99.90;;;;;;5064257;28;20171;-79
2021/06/05 04:39:53;;;;;;;70.90;33.65;;;16.90;99.90;;;;;;5060508;28;20199;-79
2021/06/05 04:42:19;;;;;;;52.78;32.53;;;16.80;99.90;;;;;;5058461;28;20554;-80
2021/06/05 04:44:44;;;;;;;65.60;32.90;;;16.80;99.90;;;;;;5057585;28;20172;-78
2021/06/05 04:47:10;;;;;;;52.85;32.35;;;16.80;99.90;;;;;;5056158;28;20171;-79
2021/06/05 04:49:37;;;;;;;53.80;31.55;;;16.80;99.90;;;;;;5064472;28;20205;-78
2021/06/05 04:52:03;;;;;;;47.55;30.30;;;16.80;99.90;;;;;;5064470;28;20206;-78
2021/06/05 04:54:29;;;;;;;49.50;30.60;;;16.90;99.90;;;;;;5057978;28;20652;-79
2021/06/05 04:56:54;;;;;;;50.22;30.83;;;17.00;99.90;;;;;;5059922;28;20259;-79
2021/06/05 04:59:21;;;;;;;54.25;30.73;;;17.00;99.90;;;;;;5059706;28;20191;-79
2021/06/05 05:01:47;;;;;;;58.67;30.73;;;17.00;99.90;;;;;;5058424;28;20186;-81
2021/06/05 05:04:13;;;;;;;47.22;28.85;;;17.00;99.90;;;;;;5055623;28;20171;-80
2021/06/05 05:06:39;;;;;;;48.20;28.83;;;17.10;99.90;;;;;;5055907;28;20229;-80
2021/06/05 05:09:07;;;;;;;37.55;26.73;;;17.20;99.90;;;;;;5059306;28;20171;-79
2021/06/05 05:11:32;;;;;;;47.92;28.40;;;17.30;99.90;;;;;;5058243;28;20160;-81
2021/06/05 05:13:58;;;;;;;48.88;29.20;;;17.40;99.90;;;;;;5058400;28;20194;-80
2021/06/05 05:16:24;;;;;;;39.05;26.80;;;17.20;99.90;;;;;;5057333;28;20723;-80
2021/06/05 05:18:50;;;;;;;47.60;28.65;;;17.10;99.90;;;;;;5058828;28;20542;-79
2021/06/05 05:21:18;;;;;;;39.25;28.27;;;17.30;99.90;;;;;;5059565;28;20167;-80
2021/06/05 05:23:44;;;;;;;42.70;27.55;;;17.20;99.90;;;;;;5059847;28;20167;-79
2021/06/05 05:26:12;;;;;;;40.33;28.30;;;17.30;99.90;;;;;;5062497;28;20293;-79
2021/06/05 05:28:39;;;;;;;42.05;26.88;;;17.20;99.90;;;;;;5071255;28;20247;-80
2021/06/05 05:31:10;;;;;;;46.10;28.70;;;17.10;99.90;;;;;;5071762;28;20195;-79
2021/06/05 05:33:42;;;;;;;51.90;28.88;;;17.10;99.90;;;;;;5068980;28;20693;-79
2021/06/05 05:36:14;;;;;;;49.72;29.63;;;17.00;99.90;;;;;;5067671;28;20662;-79
2021/06/05 05:38:40;;;;;;;45.42;30.95;;;17.10;99.90;;;;;;5064042;28;20254;-78
2021/06/05 05:41:09;;;;;;;48.38;30.70;;;17.10;99.90;;;;;;5057938;28;20195;-80
2021/06/05 05:43:34;;;;;;;43.20;30.00;;;17.30;99.90;;;;;;5061527;28;20224;-78
2021/06/05 05:46:00;;;;;;;50.70;30.67;;;17.20;99.90;;;;;;5056136;28;20168;-79
2021/06/05 05:48:26;;;;;;;50.97;31.10;;;17.30;99.90;;;;;;5059246;28;20167;-79
2021/06/05 05:50:53;;;;;;;48.17;29.95;;;17.40;99.90;;;;;;5061397;28;20599;-79
2021/06/05 05:53:19;;;;;;;56.33;30.73;;;17.30;99.90;;;;;;5057296;28;20266;-79
2021/06/05 05:55:45;;;;;;;47.63;30.33;;;17.30;99.90;;;;;;5055741;28;20292;-80
2021/06/05 05:58:16;;;;;;;56.38;31.40;;;17.20;99.90;;;;;;5055695;28;20646;-79
2021/06/05 06:00:45;;;;;;;53.35;31.75;;;17.20;99.90;;;;;;5056916;28;20595;-79
2021/06/05 06:03:11;;;;;;;54.97;32.92;;;17.30;99.90;;;;;;5056150;28;20170;-79
2021/06/05 06:05:37;;;;;;;53.55;31.83;;;17.30;99.90;;;;;;5056998;28;20175;-78
2021/06/05 06:08:04;;;;;;;53.65;32.08;;;17.20;99.90;;;;;;5058759;28;20170;-79
2021/06/05 06:10:30;;;;;;;58.85;33.05;;;17.00;99.90;;;;;;5054733;28;20191;-80
2021/06/05 06:12:55;;;;;;;63.28;32.28;;;17.00;99.90;;;;;;5055635;28;20580;-80
2021/06/05 06:15:24;;;;;;;62.30;32.58;;;17.20;99.90;;;;;;5054560;28;20238;-79
2021/06/05 06:17:51;;;;;;;53.15;33.30;;;17.30;99.90;;;;;;5054374;28;20254;-80
2021/06/05 06:20:26;;;;;;;59.13;33.53;;;17.40;99.90;;;;;;5054992;28;20194;-79
2021/06/05 06:22:52;;;;;;;72.03;36.30;;;17.30;99.90;;;;;;5054876;28;21251;-80
2021/06/05 06:25:22;;;;;;;64.10;33.80;;;17.30;99.90;;;;;;5053074;28;20317;-79
2021/06/05 06:27:49;;;;;;;58.67;34.55;;;17.20;99.90;;;;;;5053379;28;20234;-79
2021/06/05 06:30:22;;;;;;;61.95;34.45;;;17.20;99.90;;;;;;5051765;28;20298;-82
2021/06/05 06:32:52;;;;;;;68.45;35.88;;;17.10;99.90;;;;;;5053369;28;20179;-79
2021/06/05 06:35:28;;;;;;;63.97;36.95;;;17.10;99.90;;;;;;5052758;28;20562;-78
2021/06/05 06:37:54;;;;;;;67.22;37.00;;;17.10;99.90;;;;;;5052699;28;20175;-78
2021/06/05 06:40:24;;;;;;;66.10;36.95;;;17.10;99.90;;;;;;5053045;28;20222;-80
2021/06/05 06:42:50;;;;;;;65.72;37.78;;;17.10;99.90;;;;;;5053135;28;20163;-79
2021/06/05 06:45:16;;;;;;;73.13;37.60;;;17.20;99.90;;;;;;5053380;28;20174;-79
2021/06/05 06:47:45;;;;;;;68.05;37.58;;;17.20;99.90;;;;;;5052844;28;20178;-79
2021/06/05 06:50:14;;;;;;;74.05;38.92;;;17.00;99.90;;;;;;5052713;28;20190;-81
2021/06/05 06:52:39;;;;;;;66.03;37.25;;;17.00;99.90;;;;;;5052351;28;20171;-79
2021/06/05 06:55:06;;;;;;;65.90;36.92;;;16.90;99.90;;;;;;5051192;28;20319;-80
2021/06/05 06:57:32;;;;;;;66.45;35.90;;;16.90;99.90;;;;;;5052647;28;20171;-80
2021/06/05 06:59:58;;;;;;;57.78;34.95;;;16.80;99.90;;;;;;5051198;28;20203;-78
2021/06/05 07:02:24;;;;;;;58.45;34.50;;;16.90;99.90;;;;;;5051844;28;20189;-80
2021/06/05 07:04:51;;;;;;;64.68;37.58;;;16.90;99.90;;;;;;5051376;28;20254;-79
2021/06/05 07:07:17;;;;;;;75.63;39.78;;;16.80;99.90;;;;;;5051284;28;20531;-78
2021/06/05 07:09:43;;;;;;;79.32;40.72;;;17.00;99.90;;;;;;5051296;28;20187;-79
2021/06/05 07:12:09;;;;;;;80.10;41.72;;;17.10;99.90;;;;;;5051274;28;20217;-78
2021/06/05 07:14:35;;;;;;;79.28;40.42;;;17.10;99.90;;;;;;5051413;28;20171;-79
2021/06/05 07:17:01;;;;;;;66.80;37.63;;;17.00;99.90;;;;;;5051057;28;20168;-78
2021/06/05 07:19:27;;;;;;;71.72;36.38;;;16.90;99.90;;;;;;5051049;28;20690;-80
2021/06/05 07:21:53;;;;;;;58.00;32.47;;;16.90;99.90;;;;;;5051952;28;20163;-80
2021/06/05 07:24:19;;;;;;;52.65;30.55;;;17.00;99.90;;;;;;5052054;28;20232;-81
2021/06/05 07:26:44;;;;;;;48.72;30.55;;;17.00;99.90;;;;;;5051801;28;20558;-82
2021/06/05 07:29:13;;;;;;;47.45;29.98;;;16.90;99.90;;;;;;5052189;28;20167;-80
2021/06/05 07:31:43;;;;;;;49.58;30.05;;;17.00;99.90;;;;;;5051320;28;20270;-79
2021/06/05 07:34:09;;;;;;;51.63;30.50;;;17.10;99.90;;;;;;5048452;28;20197;-79
2021/06/05 07:36:40;;;;;;;50.70;29.02;;;17.30;99.90;;;;;;5040171;28;20204;-80
2021/06/05 07:39:09;;;;;;;45.53;29.10;;;17.10;99.90;;;;;;5039436;28;20194;-79
2021/06/05 07:41:35;;;;;;;48.00;29.27;;;17.00;99.90;;;;;;5047257;28;20186;-83
2021/06/05 07:44:02;;;;;;;47.53;30.13;;;16.90;99.90;;;;;;5034409;28;20164;-83
2021/06/05 07:46:31;;;;;;;52.90;29.27;;;16.90;99.90;;;;;;5033325;28;20255;-82
2021/06/05 07:48:56;;;;;;;47.40;28.33;;;16.90;99.90;;;;;;5033762;28;20176;-81
2021/06/05 07:51:22;;;;;;;52.17;28.10;;;16.70;99.90;;;;;;5034285;28;20509;-80
2021/06/05 07:53:48;;;;;;;47.65;29.15;;;16.70;99.90;;;;;;5035408;28;20179;-79
2021/06/05 07:56:18;;;;;;;43.70;27.77;;;16.80;99.90;;;;;;5036154;28;20212;-80
2021/06/05 07:58:44;;;;;;;40.83;28.08;;;16.80;99.90;;;;;;5035270;28;20254;-78
2021/06/05 08:01:09;;;;;;;48.05;28.90;;;16.70;99.90;;;;;;5031125;28;115206;-77
2021/06/05 08:03:35;;;;;;;45.75;27.88;;;16.80;99.90;;;;;;5037066;28;20168;-78
2021/06/05 08:06:01;;;;;;;45.92;27.90;;;17.00;99.90;;;;;;5048909;28;20168;-78
2021/06/05 08:08:26;;;;;;;40.55;28.13;;;17.00;99.90;;;;;;5049649;28;20266;-78
2021/06/05 08:10:53;;;;;;;43.97;28.42;;;16.90;99.90;;;;;;5050661;28;20187;-77
2021/06/05 08:13:19;;;;;;;45.05;28.25;;;16.90;99.90;;;;;;5045767;28;20164;-78
2021/06/05 08:15:49;;;;;;;47.63;28.90;;;16.90;99.90;;;;;;5036630;28;20211;-78
2021/06/05 08:18:15;;;;;;;41.92;28.58;;;17.00;99.90;;;;;;5034575;28;20172;-78
2021/06/05 08:20:53;;;;;;;36.45;27.65;;;17.00;99.90;;;;;;5035184;28;20203;-77
2021/06/05 08:23:19;;;;;;;36.50;26.63;;;17.20;99.90;;;;;;5041410;28;20172;-77
2021/06/05 08:25:46;;;;;;;39.70;27.63;;;17.30;99.90;;;;;;5040866;28;20195;-76
2021/06/05 08:28:12;;;;;;;33.60;26.27;;;17.40;99.90;;;;;;5045134;28;20168;-76
2021/06/05 08:30:45;;;;;;;39.75;26.20;;;17.40;99.90;;;;;;5044383;28;20194;-77
2021/06/05 08:33:12;;;;;;;38.35;28.40;;;17.40;99.90;;;;;;5047975;28;20249;-79
2021/06/05 08:35:38;;;;;;;46.72;30.25;;;17.50;99.90;;;;;;5046529;28;20234;-77
2021/06/05 08:38:05;;;;;;;52.80;28.88;;;17.30;99.90;;;;;;5046429;28;20164;-78
2021/06/05 08:40:57;;;;;;;49.25;29.98;;;17.50;99.90;;;;;;5036926;28;20245;-78
2021/06/05 08:43:40;;;;;;;37.45;27.70;;;17.50;99.90;;;;;;5043448;28;20179;-77
2021/06/05 08:46:09;;;;;;;41.72;28.08;;;17.60;99.90;;;;;;5043947;28;20172;-79
2021/06/05 08:48:35;;;;;;;47.97;27.83;;;17.50;99.90;;;;;;5039069;28;20176;-77
2021/06/05 08:51:27;;;;;;;41.40;28.30;;;17.70;99.90;;;;;;5041246;28;20219;-79
2021/06/05 08:54:01;;;;;;;45.25;30.73;;;17.70;99.90;;;;;;5033289;28;20183;-78
2021/06/05 08:56:29;;;;;;;46.97;30.13;;;17.70;99.90;;;;;;5043291;28;20238;-77
2021/06/05 08:59:00;;;;;;;39.17;28.45;;;17.80;99.90;;;;;;5044378;28;20624;-77
2021/06/05 09:01:40;;;;;;;37.10;27.73;;;17.90;99.90;;;;;;5038527;28;20253;-77
2021/06/05 09:04:15;;;;;;;41.38;27.00;;;17.70;99.90;;;;;;5038893;28;20230;-78
2021/06/05 09:07:11;;;;;;;39.53;28.67;;;17.60;99.90;;;;;;5042948;28;20202;-78
2021/06/05 09:09:41;;;;;;;38.15;27.00;;;17.50;99.90;;;;;;5040375;28;20192;-78
2021/06/05 09:12:10;;;;;;;38.92;27.70;;;17.80;99.90;;;;;;5040912;28;20280;-77
2021/06/05 09:14:36;;;;;;;41.85;29.52;;;17.60;99.90;;;;;;5037182;28;20254;-78
2021/06/05 09:17:38;;;;;;;38.13;27.70;;;17.60;99.90;;;;;;5037287;28;20164;-79
2021/06/05 09:20:23;;;;;;;40.05;28.50;;;17.60;99.90;;;;;;5033471;28;20603;-78
2021/06/05 09:22:49;;;;;;;40.88;29.63;;;17.60;99.90;;;;;;5036988;28;20649;-78
2021/06/05 09:25:27;;;;;;;54.40;29.52;;;17.40;99.90;;;;;;5037270;28;20241;-78
2021/06/05 09:28:11;;;;;;;54.13;33.65;;;17.40;99.90;;;;;;5038610;28;20682;-79
2021/06/05 09:30:37;;;;;;;61.78;39.22;;;17.40;99.90;;;;;;5035411;28;20207;-77
2021/06/05 09:33:10;;;;;;;72.72;42.17;;;17.20;99.90;;;;;;5035250;28;20608;-77
2021/06/05 09:35:43;;;;;;;68.30;43.38;;;17.20;99.90;;;;;;5036679;28;20250;-78
2021/06/05 09:38:24;;;;;;;66.75;39.65;;;17.20;99.90;;;;;;5032892;28;20168;-78
2021/06/05 09:41:28;;;;;;;68.53;36.60;;;17.40;99.90;;;;;;5033748;28;20187;-78
2021/06/05 09:44:33;;;;;;;54.47;33.85;;;17.60;99.90;;;;;;5033784;28;20183;-76
2021/06/05 09:47:24;;;;;;;64.88;39.38;;;17.60;99.90;;;;;;5000664;28;20271;-78
2021/06/05 09:49:58;;;;;;;69.90;44.83;;;17.50;99.90;;;;;;5034141;28;20564;-77
2021/06/05 09:52:32;;;;;;;68.20;43.92;;;17.20;99.90;;;;;;5032222;28;20236;-78
2021/06/05 09:55:19;;;;;;;72.25;43.67;;;17.10;99.90;;;;;;5033521;28;20195;-78
2021/06/05 09:57:48;;;;;;;65.28;42.38;;;17.10;99.90;;;;;;5021481;28;20237;-78
2021/06/05 10:00:33;;;;;;;61.10;38.92;;;17.10;99.90;;;;;;5033443;28;20532;-78
2021/06/05 10:03:20;;;;;;;48.83;31.20;;;17.00;99.90;;;;;;5032435;28;20536;-79
2021/06/05 10:05:49;;;;;;;47.92;30.42;;;17.00;99.90;;;;;;5031871;28;20175;-78
2021/06/05 10:08:36;;;;;;;40.97;27.40;;;17.00;99.90;;;;;;5033047;28;20213;-77
2021/06/05 10:11:35;;;;;;;38.47;25.60;;;17.20;99.90;;;;;;5033322;28;20587;-77
2021/06/05 10:14:07;;;;;;;32.92;23.63;;;17.20;99.90;;;;;;5033812;28;20171;-77
2021/06/05 10:16:36;;;;;;;29.88;22.70;;;17.20;99.90;;;;;;5032996;28;20211;-78
2021/06/05 10:19:11;;;;;;;26.77;21.88;;;17.20;99.90;;;;;;5033025;28;20171;-78
2021/06/05 10:21:43;;;;;;;26.60;22.23;;;17.20;99.90;;;;;;5031924;28;20630;-79
2021/06/05 10:24:28;;;;;;;27.83;20.95;;;17.10;99.90;;;;;;5033016;28;20272;-78
2021/06/05 10:26:57;;;;;;;27.08;21.63;;;17.10;99.90;;;;;;5032798;28;20171;-78
2021/06/05 10:29:44;;;;;;;29.17;22.95;;;17.40;99.90;;;;;;5032806;28;20184;-78
2021/06/05 10:32:26;;;;;;;39.60;26.67;;;17.40;99.90;;;;;;5032705;28;20163;-77
2021/06/05 10:35:00;;;;;;;46.90;30.67;;;17.50;99.90;;;;;;5032999;28;20550;-78
2021/06/05 10:37:29;;;;;;;62.13;39.45;;;17.40;99.90;;;;;;5033061;28;20174;-79
2021/06/05 10:39:55;;;;;;;58.47;41.35;;;17.20;99.90;;;;;;5032817;28;20226;-80
2021/06/05 10:42:25;;;;;;;67.05;42.42;;;17.10;99.90;;;;;;5033168;28;20498;-78
2021/06/05 10:44:53;;;;;;;68.43;43.03;;;17.10;99.90;;;;;;5033331;28;20163;-80
2021/06/05 10:47:24;;;;;;;61.17;41.45;;;17.00;99.90;;;;;;5033929;28;20246;-78
2021/06/05 10:49:55;;;;;;;68.90;42.35;;;16.90;99.90;;;;;;5034280;28;20211;-81
2021/06/05 10:52:44;;;;;;;61.42;40.13;;;17.00;99.90;;;;;;5055896;28;20167;-80
2021/06/05 10:55:20;;;;;;;65.15;42.15;;;17.10;99.90;;;;;;5053255;28;20203;-80
2021/06/05 10:57:49;;;;;;;65.75;41.92;;;17.20;99.90;;;;;;5045527;28;20167;-81
2021/06/05 11:00:21;;;;;;;71.75;43.45;;;17.50;99.90;;;;;;5033519;28;20196;-80
2021/06/05 11:02:50;;;;;;;74.05;45.78;;;17.40;99.90;;;;;;5032410;28;20187;-80
2021/06/05 11:05:27;;;;;;;64.75;41.47;;;17.40;99.90;;;;;;5034347;28;20199;-79
2021/06/05 11:08:16;;;;;;;62.17;40.78;;;17.40;99.90;;;;;;5033888;28;20594;-79
2021/06/05 11:10:54;;;;;;;59.97;41.30;;;17.40;99.90;;;;;;5031828;28;20192;-78
2021/06/05 11:13:37;;;;;;;57.33;39.00;;;17.30;99.90;;;;;;5033528;28;20167;-79
2021/06/05 11:16:09;;;;;;;61.17;37.85;;;17.40;99.90;;;;;;5036410;28;20203;-78
2021/06/05 11:18:42;;;;;;;64.07;37.55;;;17.40;99.90;;;;;;5036310;28;20168;-80
2021/06/05 11:21:20;;;;;;;58.03;36.83;;;17.40;99.90;;;;;;5036657;28;20644;-80
2021/06/05 11:23:58;;;;;;;61.58;37.72;;;17.20;99.90;;;;;;5036590;28;20172;-79
2021/06/05 11:26:39;;;;;;;53.50;38.50;;;17.20;99.90;;;;;;5036504;28;20171;-78
2021/06/05 11:29:20;;;;;;;50.58;35.13;;;17.10;99.90;;;;;;5036691;28;20164;-78
2021/06/05 11:31:56;;;;;;;47.72;33.95;;;17.20;99.90;;;;;;5039237;28;20317;-78
2021/06/05 11:34:33;;;;;;;52.60;37.17;;;17.20;99.90;;;;;;5035973;28;20170;-78
2021/06/05 11:37:01;;;;;;;57.15;37.28;;;17.10;99.90;;;;;;5035739;28;20214;-79
2021/06/05 11:39:27;;;;;;;50.75;37.53;;;17.20;99.90;;;;;;5034645;28;20710;-78
2021/06/05 11:41:56;;;;;;;55.72;37.72;;;17.40;99.90;;;;;;5041031;28;20160;-78
2021/06/05 11:44:27;;;;;;;53.28;35.38;;;17.40;99.90;;;;;;5040534;28;20191;-79
2021/06/05 11:47:13;;;;;;;47.30;34.90;;;17.30;99.90;;;;;;5040353;28;20171;-78
2021/06/05 11:49:41;;;;;;;55.60;34.88;;;17.30;99.90;;;;;;5039514;28;20345;-78
2021/06/05 11:52:29;;;;;;;56.30;38.55;;;17.10;99.90;;;;;;5040769;28;20202;-79
2021/06/05 11:55:14;;;;;;;65.70;38.10;;;17.10;99.90;;;;;;5037293;28;20196;-80
2021/06/05 11:58:05;;;;;;;65.72;38.70;;;17.00;99.90;;;;;;5037881;28;20228;-80
2021/06/05 12:00:36;;;;;;;79.57;38.38;;;17.00;99.90;;;;;;5034470;28;20567;-79
2021/06/05 12:03:19;;;;;;;65.95;39.47;;;17.10;99.90;;;;;;5036170;28;20263;-79
2021/06/05 12:05:45;;;;;;;65.80;38.22;;;17.20;99.90;;;;;;5037225;28;20636;-84
2021/06/05 12:08:29;;;;;;;54.20;35.40;;;17.10;99.90;;;;;;5037819;28;20168;-77
2021/06/05 12:10:57;;;;;;;66.28;38.47;;;17.20;99.90;;;;;;5038976;28;20195;-80
2021/06/05 12:13:33;;;;;;;60.72;40.22;;;17.30;99.90;;;;;;5021495;28;20171;-79
2021/06/05 12:16:23;;;;;;;64.15;40.67;;;17.30;99.90;;;;;;5035929;28;20203;-79
2021/06/05 12:18:50;;;;;;;59.75;40.30;;;17.20;99.90;;;;;;5036822;28;20251;-79
2021/06/05 12:23:58;;;;;;;72.47;42.72;;;17.50;99.90;;;;;;5035103;28;20626;-81
2021/06/05 12:26:27;;;;;;;67.93;41.67;;;17.40;99.90;;;;;;5043071;28;20176;-79
2021/06/05 12:29:12;;;;;;;77.82;42.60;;;17.40;99.90;;;;;;5037706;28;20613;-81
2021/06/05 12:31:42;;;;;;;64.72;40.83;;;17.60;99.90;;;;;;5050799;28;20170;-80
2021/06/05 12:36:39;;;;;;;46.63;33.95;;;17.70;99.90;;;;;;5037169;28;20289;-79
2021/06/05 12:39:26;;;;;;;48.45;31.58;;;17.80;99.90;;;;;;5055311;28;20178;-82
2021/06/05 12:41:53;;;;;;;36.22;26.58;;;18.10;99.90;;;;;;5056431;28;20170;-83
2021/06/05 12:44:34;;;;;;;40.75;29.55;;;18.00;99.90;;;;;;5055297;28;20159;-84
2021/06/05 12:47:05;;;;;;;40.70;30.85;;;18.00;99.90;;;;;;5015637;28;20223;-83
2021/06/05 12:49:32;;;;;;;45.25;33.05;;;18.10;99.90;;;;;;5015015;28;20898;-82